Granger, Indiana
Current Conditions -  °F | °C
As of 2:54 AM on Sunday 23 Nov 2014 (Local Time) from KSBN Reporting Station
Overcast Overcast  
Wind Chill: 50°   Ceiling: 2200
Heat Index: 50°   Visibility: 10mi
Dew Point: 45°   Wind: 16mph
Humidity: 83%   Direction: 210°SSW
Pressure: 29.9"   Gusts: NA
Location:  41.75°N, 86.13°W
Report Text: KSBN 230754Z 21014KT 10SM OVC022 10/07 A2990 RMK AO2 SLP129 T01000072
Loading
Personal Weather Stations






























Interactive Weather Map New forecast layout! Learn more

10-Day Weather Forecast

Advertisements
Track Severe Weather on mobile